Time;durP1;ratioP1;P1;durP2;ratioP2;P2;SDS_P1;SDS_P2;PMS_P1;PMS_P2;Temp;Humidity;BMP_temperature;BMP_pressure;BME280_temperature;BME280_humidity;BME280_pressure;Samples;Min_cycle;Max_cycle;Signal;HPM_P1;HPM_P2
2023/09/26 00:00:21;;;;;;;10.75;7.65;;;13.00;99.90;;;;;;5154718;27;20075;-28
2023/09/26 00:02:50;;;;;;;8.93;8.02;;;12.90;99.90;;;;;;5156525;27;20376;-28
2023/09/26 00:05:19;;;;;;;10.20;8.13;;;12.90;99.90;;;;;;5155675;27;20408;-28
2023/09/26 00:07:45;;;;;;;9.98;8.45;;;12.90;99.90;;;;;;5154434;27;20071;-27
2023/09/26 00:10:11;;;;;;;11.75;8.63;;;12.90;99.90;;;;;;5155584;27;20039;-27
2023/09/26 00:12:38;;;;;;;10.80;8.93;;;12.80;99.90;;;;;;5155829;27;20038;-28
2023/09/26 00:15:07;;;;;;;11.35;9.38;;;12.80;99.90;;;;;;5154330;27;20130;-27
2023/09/26 00:17:33;;;;;;;10.52;9.30;;;12.80;99.90;;;;;;5155453;27;20050;-27
2023/09/26 00:19:59;;;;;;;10.95;8.02;;;12.80;99.90;;;;;;5154493;27;20050;-27
2023/09/26 00:22:24;;;;;;;11.40;8.45;;;12.80;99.90;;;;;;5155582;27;20043;-28
2023/09/26 00:24:51;;;;;;;11.45;8.18;;;12.80;99.90;;;;;;5154539;27;20537;-28
2023/09/26 00:27:20;;;;;;;8.73;7.65;;;12.80;99.90;;;;;;5155496;27;20476;-27
2023/09/26 00:29:47;;;;;;;11.65;7.88;;;12.80;99.90;;;;;;5155362;27;20047;-28
2023/09/26 00:32:14;;;;;;;8.93;7.65;;;12.80;99.90;;;;;;5155294;27;20042;-27
2023/09/26 00:34:43;;;;;;;11.75;8.05;;;12.70;99.90;;;;;;5155648;27;20042;-27
2023/09/26 00:37:09;;;;;;;10.25;7.53;;;12.70;99.90;;;;;;5155563;27;20050;-27
2023/09/26 00:39:36;;;;;;;10.82;7.90;;;12.80;99.90;;;;;;5155303;27;20387;-27
2023/09/26 00:42:04;;;;;;;9.90;8.38;;;12.80;99.90;;;;;;5155536;27;20042;-27
2023/09/26 00:44:32;;;;;;;14.20;9.27;;;12.80;99.90;;;;;;5154228;27;20047;-27
2023/09/26 00:47:02;;;;;;;9.82;8.32;;;12.80;99.90;;;;;;5154903;27;20480;-27
2023/09/26 00:49:30;;;;;;;12.48;8.23;;;12.80;99.90;;;;;;5155185;27;20099;-27
2023/09/26 00:52:00;;;;;;;15.27;9.10;;;12.80;99.90;;;;;;5154981;27;20457;-28
2023/09/26 00:54:26;;;;;;;11.02;8.77;;;12.80;99.90;;;;;;5155968;27;20034;-27
2023/09/26 00:56:52;;;;;;;9.60;7.85;;;12.80;99.90;;;;;;5155129;27;20078;-27
2023/09/26 00:59:19;;;;;;;11.02;8.80;;;12.80;99.90;;;;;;5154902;27;20487;-28
2023/09/26 01:01:48;;;;;;;11.10;9.60;;;12.80;99.90;;;;;;5136946;27;20047;-27
2023/09/26 01:04:15;;;;;;;11.23;9.27;;;12.70;99.90;;;;;;5157822;27;20525;-27
2023/09/26 01:06:41;;;;;;;15.80;9.80;;;12.70;99.90;;;;;;5159101;27;20046;-27
2023/09/26 01:09:09;;;;;;;11.02;8.82;;;12.60;99.90;;;;;;5157916;27;20043;-27
2023/09/26 01:11:36;;;;;;;12.13;10.20;;;12.60;99.90;;;;;;5158954;27;20127;-27
2023/09/26 01:14:02;;;;;;;14.20;9.45;;;12.60;99.90;;;;;;5158916;27;20053;-27
2023/09/26 01:16:27;;;;;;;13.05;9.70;;;12.60;99.90;;;;;;5158314;27;20039;-26
2023/09/26 01:18:54;;;;;;;11.57;10.38;;;12.50;99.90;;;;;;5159380;27;20042;-27
2023/09/26 01:21:20;;;;;;;13.90;11.13;;;12.50;99.90;;;;;;5158737;27;20043;-27
2023/09/26 01:23:55;;;;;;;12.30;9.80;;;12.50;99.90;;;;;;5158738;27;20049;-27
2023/09/26 01:26:21;;;;;;;12.32;9.98;;;12.50;99.90;;;;;;5157921;27;20051;-27
2023/09/26 01:28:46;;;;;;;13.63;9.73;;;12.40;99.90;;;;;;5158629;27;20387;-28
2023/09/26 01:31:12;;;;;;;12.60;10.05;;;12.40;99.90;;;;;;5158892;27;20053;-27
2023/09/26 01:33:38;;;;;;;13.90;11.18;;;12.40;99.90;;;;;;5158242;27;20054;-27
2023/09/26 01:36:06;;;;;;;12.50;10.32;;;12.30;99.90;;;;;;5158489;27;20049;-27
2023/09/26 01:38:32;;;;;;;14.38;11.05;;;12.30;99.90;;;;;;5158441;27;20049;-27
2023/09/26 01:40:58;;;;;;;11.73;10.07;;;12.30;99.90;;;;;;5158377;27;20042;-28
2023/09/26 01:43:25;;;;;;;13.75;10.15;;;12.30;99.90;;;;;;5158799;27;20045;-27
2023/09/26 01:45:51;;;;;;;11.63;9.27;;;12.20;99.90;;;;;;5158902;27;20057;-27
2023/09/26 01:48:16;;;;;;;12.48;10.10;;;12.10;99.90;;;;;;5159097;27;20042;-27
2023/09/26 01:50:42;;;;;;;12.73;9.95;;;12.10;99.90;;;;;;5158158;27;20484;-27
2023/09/26 01:53:10;;;;;;;13.60;10.75;;;12.10;99.90;;;;;;5158348;27;20048;-28
2023/09/26 01:55:38;;;;;;;16.02;11.85;;;12.00;99.90;;;;;;5158676;27;20168;-27
2023/09/26 01:58:07;;;;;;;15.80;11.27;;;11.90;99.90;;;;;;5158345;27;20038;-27
2023/09/26 02:00:34;;;;;;;18.00;11.98;;;11.90;99.90;;;;;;5157991;27;20129;-27
2023/09/26 02:03:00;;;;;;;14.10;11.70;;;11.90;99.90;;;;;;5156892;27;20042;-27
2023/09/26 02:05:25;;;;;;;14.68;11.73;;;11.80;99.90;;;;;;5156646;27;20053;-27
2023/09/26 02:07:51;;;;;;;17.20;12.80;;;11.80;99.90;;;;;;5157851;27;20038;-27
2023/09/26 02:10:18;;;;;;;16.67;13.57;;;11.80;99.90;;;;;;5157832;27;20049;-27
2023/09/26 02:12:46;;;;;;;16.25;12.93;;;11.80;99.90;;;;;;5156850;27;20050;-27
2023/09/26 02:15:14;;;;;;;14.70;12.40;;;11.80;99.90;;;;;;5155157;27;20095;-27
2023/09/26 02:17:41;;;;;;;16.05;12.73;;;11.80;99.90;;;;;;5140475;27;20094;-27
2023/09/26 02:20:12;;;;;;;16.42;13.18;;;11.70;99.90;;;;;;5157669;27;20039;-27
2023/09/26 02:22:43;;;;;;;17.88;13.02;;;11.70;99.90;;;;;;5158223;27;20114;-27
2023/09/26 02:25:12;;;;;;;17.88;15.05;;;11.70;99.90;;;;;;5158444;27;20051;-27
2023/09/26 02:27:39;;;;;;;18.30;14.32;;;11.80;99.90;;;;;;5157513;27;20067;-27
2023/09/26 02:30:08;;;;;;;15.10;12.77;;;11.80;99.90;;;;;;5158298;27;20049;-27
2023/09/26 02:32:34;;;;;;;18.65;13.40;;;11.80;99.90;;;;;;5156240;27;20048;-27
2023/09/26 02:35:04;;;;;;;19.70;13.10;;;11.80;99.90;;;;;;5156228;27;20404;-27
2023/09/26 02:37:30;;;;;;;30.92;14.13;;;11.80;99.90;;;;;;5156912;27;20051;-27
2023/09/26 02:39:55;;;;;;;16.88;11.98;;;11.80;99.90;;;;;;5157829;27;20472;-27
2023/09/26 02:42:21;;;;;;;17.67;12.68;;;11.70;99.90;;;;;;5157818;27;20031;-27
2023/09/26 02:44:47;;;;;;;14.32;11.98;;;11.70;99.90;;;;;;5155935;27;20078;-27
2023/09/26 02:47:13;;;;;;;19.45;13.18;;;11.60;99.90;;;;;;5157154;27;20384;-27
2023/09/26 02:49:38;;;;;;;14.38;11.52;;;11.60;99.90;;;;;;5156110;27;20125;-27
2023/09/26 02:52:04;;;;;;;15.05;11.63;;;11.60;99.90;;;;;;5156325;27;20042;-27
2023/09/26 02:54:30;;;;;;;16.25;12.65;;;11.50;99.90;;;;;;5156633;27;20512;-27
2023/09/26 02:56:59;;;;;;;17.10;12.18;;;11.60;99.90;;;;;;5157166;27;20507;-27
2023/09/26 02:59:25;;;;;;;14.52;11.35;;;11.50;99.90;;;;;;5155684;27;20047;-27
2023/09/26 03:01:51;;;;;;;12.55;11.10;;;11.50;99.90;;;;;;5156886;27;20503;-27
2023/09/26 03:04:17;;;;;;;14.65;12.48;;;11.50;99.90;;;;;;5156679;27;20043;-27
2023/09/26 03:06:45;;;;;;;13.40;11.20;;;11.50;99.90;;;;;;5156650;27;20050;-27
2023/09/26 03:09:11;;;;;;;14.88;12.40;;;11.40;99.90;;;;;;5155421;27;20043;-27
2023/09/26 03:11:37;;;;;;;18.13;13.40;;;11.40;99.90;;;;;;5156886;27;20049;-27
2023/09/26 03:14:05;;;;;;;15.35;11.13;;;11.40;99.90;;;;;;5157147;27;20107;-27
2023/09/26 03:16:33;;;;;;;15.13;11.70;;;11.40;99.90;;;;;;5156509;27;20568;-27
2023/09/26 03:18:58;;;;;;;16.95;11.38;;;11.40;99.90;;;;;;5155329;27;20532;-28
2023/09/26 03:21:24;;;;;;;14.77;11.63;;;11.50;99.90;;;;;;5156478;27;20051;-27
2023/09/26 03:23:53;;;;;;;14.63;12.30;;;11.50;99.90;;;;;;5156039;27;20484;-28
2023/09/26 03:26:19;;;;;;;15.80;12.18;;;11.50;99.90;;;;;;5155936;27;20099;-27
2023/09/26 03:28:44;;;;;;;17.25;11.38;;;11.40;99.90;;;;;;5156033;27;20042;-27
2023/09/26 03:31:10;;;;;;;16.23;11.38;;;11.50;99.90;;;;;;5155897;27;20047;-27
2023/09/26 03:33:38;;;;;;;17.63;11.85;;;11.50;99.90;;;;;;5157037;27;20042;-27
2023/09/26 03:36:04;;;;;;;18.52;13.38;;;11.50;99.90;;;;;;5155977;27;20039;-27
2023/09/26 03:38:33;;;;;;;14.65;12.35;;;11.50;99.90;;;;;;5156913;27;20043;-27
2023/09/26 03:41:04;;;;;;;16.95;11.85;;;11.50;99.90;;;;;;5156921;27;20168;-28
2023/09/26 03:43:30;;;;;;;13.77;12.25;;;11.50;99.90;;;;;;5156788;27;20035;-28
2023/09/26 03:46:06;;;;;;;18.27;12.63;;;11.50;99.90;;;;;;5155981;27;20476;-27
2023/09/26 03:48:33;;;;;;;15.18;13.52;;;11.50;99.90;;;;;;5138014;27;20122;-27
2023/09/26 03:51:12;;;;;;;15.45;12.00;;;11.50;99.90;;;;;;5155854;27;20043;-28
2023/09/26 03:57:22;;;;;;;13.23;11.73;;;11.60;99.90;;;;;;5139252;27;20475;-27
2023/09/26 03:59:49;;;;;;;17.05;13.18;;;11.60;99.90;;;;;;5146709;27;20060;-27
2023/09/26 04:02:15;;;;;;;15.52;12.85;;;11.60;99.90;;;;;;5145268;27;20413;-27
2023/09/26 04:04:40;;;;;;;16.00;11.60;;;11.50;99.90;;;;;;5154035;27;20039;-26
2023/09/26 04:07:06;;;;;;;14.95;12.43;;;11.50;99.90;;;;;;5133402;27;20047;-27
2023/09/26 04:09:35;;;;;;;16.65;12.13;;;11.40;99.90;;;;;;5154123;27;20046;-27
2023/09/26 04:12:03;;;;;;;17.20;12.85;;;11.40;99.90;;;;;;5155599;27;20043;-28
2023/09/26 04:14:29;;;;;;;15.23;11.88;;;11.40;99.90;;;;;;5153652;27;20053;-27
2023/09/26 04:16:58;;;;;;;16.23;12.20;;;11.50;99.90;;;;;;5155528;27;20095;-27
2023/09/26 04:19:24;;;;;;;13.50;11.68;;;11.60;99.90;;;;;;5156293;27;20121;-27
2023/09/26 04:21:53;;;;;;;17.08;13.05;;;11.60;99.90;;;;;;5156081;27;20555;-27
2023/09/26 04:24:19;;;;;;;18.55;13.80;;;11.70;99.90;;;;;;5154064;27;20042;-25
2023/09/26 04:26:45;;;;;;;16.90;13.88;;;11.70;99.90;;;;;;5155294;27;20046;-27
2023/09/26 04:29:11;;;;;;;16.15;13.50;;;11.80;99.90;;;;;;5155685;27;20047;-27
2023/09/26 04:31:37;;;;;;;15.10;12.10;;;11.80;99.90;;;;;;5155846;27;20560;-27
2023/09/26 04:34:03;;;;;;;17.50;14.27;;;11.80;99.90;;;;;;5155327;27;20043;-27
2023/09/26 04:36:29;;;;;;;14.88;13.25;;;11.80;99.90;;;;;;5154297;27;20053;-28
2023/09/26 04:38:55;;;;;;;16.17;12.93;;;11.80;99.90;;;;;;5159092;27;20460;-27
2023/09/26 04:41:22;;;;;;;17.73;12.48;;;11.80;99.90;;;;;;5143174;27;20035;-28
2023/09/26 04:43:47;;;;;;;18.33;11.18;;;11.80;99.90;;;;;;5139295;27;20111;-28
2023/09/26 04:46:14;;;;;;;16.15;12.23;;;11.80;99.90;;;;;;5120488;27;20496;-27
2023/09/26 04:48:41;;;;;;;15.82;12.35;;;11.90;99.90;;;;;;5138697;27;20051;-27
2023/09/26 04:51:12;;;;;;;15.02;11.88;;;11.80;99.90;;;;;;5137381;27;20065;-27
2023/09/26 04:53:39;;;;;;;15.65;11.57;;;11.90;99.90;;;;;;5139589;27;20043;-25
2023/09/26 04:56:05;;;;;;;15.57;11.65;;;11.80;99.90;;;;;;5140081;27;20039;-27
2023/09/26 04:58:32;;;;;;;12.93;11.00;;;11.80;99.90;;;;;;5121529;27;20092;-27
2023/09/26 05:01:00;;;;;;;16.05;13.25;;;11.90;99.90;;;;;;5138748;27;20087;-27
2023/09/26 05:03:29;;;;;;;16.00;12.98;;;11.90;99.90;;;;;;5138352;27;20047;-27
2023/09/26 05:05:55;;;;;;;14.73;13.10;;;11.90;99.90;;;;;;5138955;27;20043;-27
2023/09/26 05:08:20;;;;;;;16.95;12.55;;;11.90;99.90;;;;;;5138262;27;20129;-27
2023/09/26 05:10:48;;;;;;;14.43;12.50;;;11.90;99.90;;;;;;5139382;27;20043;-28
2023/09/26 05:13:15;;;;;;;15.80;12.82;;;11.90;99.90;;;;;;5140675;27;20049;-27
2023/09/26 05:15:40;;;;;;;16.63;12.15;;;11.90;99.90;;;;;;5138229;27;20143;-27
2023/09/26 05:18:06;;;;;;;25.92;12.80;;;11.90;99.90;;;;;;5121095;27;20134;-23
2023/09/26 05:20:32;;;;;;;14.57;12.82;;;11.90;99.90;;;;;;5158188;27;20437;-27
2023/09/26 05:23:00;;;;;;;19.60;14.38;;;11.90;99.90;;;;;;5157235;27;20050;-27
2023/09/26 05:25:26;;;;;;;16.73;12.52;;;11.90;99.90;;;;;;5158727;27;20039;-27
2023/09/26 05:27:52;;;;;;;15.52;12.63;;;12.00;99.90;;;;;;5158717;27;20051;-27
2023/09/26 05:30:18;;;;;;;15.52;11.57;;;11.90;99.90;;;;;;5157887;27;20457;-27
2023/09/26 05:32:43;;;;;;;15.52;11.85;;;11.90;99.90;;;;;;5157548;27;20043;-27
2023/09/26 05:35:10;;;;;;;16.35;12.48;;;11.90;99.90;;;;;;5138831;27;20039;-27
2023/09/26 05:37:37;;;;;;;17.30;13.35;;;12.00;99.90;;;;;;5159069;27;20043;-27
2023/09/26 05:40:06;;;;;;;18.77;12.23;;;11.90;99.90;;;;;;5158458;27;20381;-27
2023/09/26 05:42:36;;;;;;;16.10;12.30;;;12.00;99.90;;;;;;5154936;27;20441;-27
2023/09/26 05:45:03;;;;;;;19.25;14.77;;;12.10;99.90;;;;;;5154114;27;20102;-27
2023/09/26 05:47:29;;;;;;;15.85;12.77;;;12.20;99.90;;;;;;5174359;27;20106;-27
2023/09/26 05:49:55;;;;;;;16.63;12.68;;;12.20;99.90;;;;;;5138010;27;20432;-27
2023/09/26 05:52:23;;;;;;;16.27;12.50;;;12.30;99.90;;;;;;5156934;27;20560;-25
2023/09/26 05:54:48;;;;;;;16.52;13.02;;;12.30;99.90;;;;;;5154914;27;20035;-27
2023/09/26 05:57:15;;;;;;;15.38;12.52;;;12.30;99.90;;;;;;5158109;27;20047;-27
2023/09/26 05:59:41;;;;;;;17.35;13.02;;;12.40;99.90;;;;;;5156911;27;20094;-28
2023/09/26 06:02:16;;;;;;;14.73;11.85;;;12.40;99.90;;;;;;5158596;27;20038;-27
2023/09/26 06:04:45;;;;;;;16.42;12.20;;;12.60;99.90;;;;;;5157931;27;20102;-27
2023/09/26 06:07:11;;;;;;;14.23;11.20;;;12.70;99.90;;;;;;5155542;27;20047;-27
2023/09/26 06:09:38;;;;;;;18.83;13.32;;;12.70;99.90;;;;;;5136010;27;20043;-27
2023/09/26 06:12:11;;;;;;;13.95;11.20;;;12.80;99.90;;;;;;5137138;27;20043;-27
2023/09/26 06:14:37;;;;;;;;;;;12.90;99.90;;;;;;5140078;27;20042;-27
2023/09/26 06:17:03;;;;;;;14.43;11.23;;;13.00;99.90;;;;;;5170457;27;19919;-27
2023/09/26 06:19:29;;;;;;;16.73;11.60;;;13.10;99.90;;;;;;5136958;27;20134;-27
2023/09/26 06:21:55;;;;;;;14.07;12.25;;;13.10;99.90;;;;;;5136885;27;20126;-27
2023/09/26 06:24:20;;;;;;;21.08;12.65;;;13.20;99.90;;;;;;5137027;27;20076;-27
2023/09/26 06:26:46;;;;;;;13.73;10.80;;;13.40;99.90;;;;;;5135819;27;20050;-27
2023/09/26 06:29:12;;;;;;;14.88;11.82;;;13.50;99.90;;;;;;5138848;27;20043;-27
2023/09/26 06:31:40;;;;;;;15.77;10.90;;;13.60;99.90;;;;;;5137300;27;20480;-28
2023/09/26 06:34:06;;;;;;;12.23;10.93;;;13.70;99.90;;;;;;5146872;27;20069;-27
2023/09/26 06:36:32;;;;;;;15.05;11.85;;;13.70;99.90;;;;;;5139194;27;20042;-27
2023/09/26 06:38:58;;;;;;;14.27;10.40;;;13.80;99.90;;;;;;5156121;27;20046;-27
2023/09/26 06:41:24;;;;;;;13.57;9.70;;;13.90;99.90;;;;;;5157255;27;20568;-27
2023/09/26 06:43:52;;;;;;;10.52;8.88;;;13.90;99.90;;;;;;5157367;27;20087;-27
2023/09/26 06:46:18;;;;;;;11.27;8.70;;;14.00;99.90;;;;;;5138855;27;20057;-28
2023/09/26 06:48:44;;;;;;;13.00;8.68;;;14.00;99.90;;;;;;5138829;27;20043;-28
2023/09/26 06:51:11;;;;;;;11.70;8.23;;;14.20;99.90;;;;;;5156704;27;20122;-27
2023/09/26 06:53:37;;;;;;;10.57;8.38;;;14.30;99.90;;;;;;5155735;27;20043;-28
2023/09/26 06:56:05;;;;;;;16.10;8.82;;;14.40;99.90;;;;;;5156894;27;20125;-27
2023/09/26 06:58:31;;;;;;;14.77;9.05;;;14.50;99.90;;;;;;5156929;27;20034;-28
2023/09/26 07:00:58;;;;;;;12.25;8.82;;;14.60;99.90;;;;;;5156082;27;20043;-27
2023/09/26 07:03:29;;;;;;;9.90;7.88;;;14.70;99.90;;;;;;5156137;27;20143;-27
2023/09/26 07:05:56;;;;;;;10.13;8.32;;;14.80;99.90;;;;;;5157361;27;20046;-27
2023/09/26 07:08:22;;;;;;;10.57;7.93;;;14.80;99.90;;;;;;5156709;27;20488;-27
2023/09/26 07:10:49;;;;;;;11.82;8.10;;;14.80;99.90;;;;;;5157482;27;20042;-27
2023/09/26 07:13:16;;;;;;;12.35;8.45;;;14.80;99.90;;;;;;5156401;27;20125;-28
2023/09/26 07:15:42;;;;;;;11.00;8.25;;;14.80;99.90;;;;;;5155455;27;20050;-27
2023/09/26 07:18:09;;;;;;;11.77;7.88;;;14.70;99.90;;;;;;5157106;27;20086;-27
2023/09/26 07:20:38;;;;;;;13.18;8.60;;;14.70;99.90;;;;;;5156998;27;20050;-27
2023/09/26 07:23:04;;;;;;;12.25;8.85;;;14.70;99.90;;;;;;5155973;27;20058;-27
2023/09/26 07:25:30;;;;;;;11.48;8.15;;;14.70;99.90;;;;;;5156943;27;20047;-27
2023/09/26 07:27:56;;;;;;;10.77;7.90;;;14.80;99.90;;;;;;5156558;27;20093;-27
2023/09/26 07:30:22;;;;;;;10.43;7.72;;;14.80;99.90;;;;;;5138035;27;20042;-27
2023/09/26 07:32:47;;;;;;;13.20;8.32;;;14.80;99.90;;;;;;5156793;27;20047;-27
2023/09/26 07:35:13;;;;;;;10.27;7.97;;;14.80;99.90;;;;;;5155836;27;20050;-27
2023/09/26 07:37:39;;;;;;;9.95;7.88;;;14.80;99.90;;;;;;5156949;27;20049;-27
2023/09/26 07:40:08;;;;;;;11.35;9.35;;;14.90;99.90;;;;;;5154964;27;20046;-28
2023/09/26 07:42:35;;;;;;;11.98;8.35;;;14.90;99.90;;;;;;5155363;27;20069;-27
2023/09/26 07:45:01;;;;;;;14.10;9.65;;;15.00;99.90;;;;;;5156331;27;20069;-27
2023/09/26 07:47:27;;;;;;;9.50;7.57;;;15.10;99.90;;;;;;5155997;27;20047;-27
2023/09/26 07:49:53;;;;;;;9.20;7.40;;;15.00;99.90;;;;;;5155880;27;20496;-28
2023/09/26 07:52:19;;;;;;;12.32;8.68;;;15.10;99.90;;;;;;5155824;27;20046;-28
2023/09/26 07:54:45;;;;;;;10.82;8.60;;;15.20;99.90;;;;;;5156417;27;20138;-27
2023/09/26 07:57:11;;;;;;;10.38;8.38;;;15.20;99.90;;;;;;5155840;27;20092;-27
2023/09/26 07:59:38;;;;;;;9.70;7.80;;;15.30;99.90;;;;;;5155775;27;20484;-28
2023/09/26 08:02:03;;;;;;;10.05;7.90;;;15.40;99.90;;;;;;5154573;27;20112;-27
2023/09/26 08:04:29;;;;;;;13.48;8.43;;;15.50;99.90;;;;;;5155561;27;20042;-28
2023/09/26 08:06:55;;;;;;;12.07;9.10;;;15.60;99.90;;;;;;5155700;27;20050;-29
2023/09/26 08:09:20;;;;;;;10.63;8.25;;;15.70;99.90;;;;;;5155573;27;20436;-27
2023/09/26 08:11:46;;;;;;;9.50;7.97;;;15.80;99.90;;;;;;5156042;27;20053;-28
2023/09/26 08:14:12;;;;;;;11.18;8.82;;;16.00;99.90;;;;;;5155567;27;20035;-28
2023/09/26 08:16:40;;;;;;;13.45;8.00;;;16.20;99.90;;;;;;5137430;27;20038;-27
2023/09/26 08:19:06;;;;;;;12.02;8.13;;;16.30;99.90;;;;;;5155166;27;20082;-27
2023/09/26 08:21:32;;;;;;;10.00;7.75;;;16.40;99.90;;;;;;5154298;27;20053;-27
2023/09/26 08:23:57;;;;;;;10.45;7.95;;;16.40;99.90;;;;;;5136557;27;20054;-27
2023/09/26 08:26:23;;;;;;;10.23;7.47;;;16.40;99.90;;;;;;5155658;27;20063;-28
2023/09/26 08:28:49;;;;;;;13.10;7.55;;;16.30;99.90;;;;;;5155359;27;20472;-29
2023/09/26 08:31:15;;;;;;;9.57;7.50;;;16.30;99.90;;;;;;5155384;27;20054;-27
2023/09/26 08:33:43;;;;;;;9.50;7.60;;;16.30;99.90;;;;;;5155299;27;20042;-27
2023/09/26 08:36:16;;;;;;;8.80;7.38;;;16.30;99.90;;;;;;5154601;27;20142;-29
2023/09/26 08:38:47;;;;;;;13.27;7.63;;;16.20;99.90;;;;;;5155316;27;20049;-27
2023/09/26 08:41:13;;;;;;;10.93;7.47;;;16.10;99.90;;;;;;5155273;27;20065;-27
2023/09/26 08:43:38;;;;;;;12.13;9.15;;;16.00;99.90;;;;;;5155234;27;20516;-28
2023/09/26 08:46:06;;;;;;;16.05;8.60;;;16.00;99.90;;;;;;5136851;27;20142;-28
2023/09/26 08:48:34;;;;;;;11.85;8.70;;;16.00;99.90;;;;;;5155231;27;20047;-28
2023/09/26 08:50:59;;;;;;;12.00;8.05;;;16.00;99.90;;;;;;5155168;27;20099;-28
2023/09/26 08:53:25;;;;;;;10.82;7.45;;;16.10;99.90;;;;;;5154258;27;20051;-28
2023/09/26 08:55:52;;;;;;;10.10;7.40;;;16.10;99.90;;;;;;5155932;27;20073;-27
2023/09/26 08:58:20;;;;;;;10.63;7.47;;;16.30;99.90;;;;;;5153896;27;20039;-27
2023/09/26 09:00:46;;;;;;;11.30;8.23;;;16.40;99.90;;;;;;5155356;27;20043;-28
2023/09/26 09:03:15;;;;;;;10.73;7.45;;;16.60;99.90;;;;;;5155531;27;20082;-27
2023/09/26 09:05:41;;;;;;;10.63;7.95;;;17.10;99.90;;;;;;5155237;27;20050;-27
2023/09/26 09:08:22;;;;;;;9.98;7.25;;;17.20;99.90;;;;;;5155057;27;20071;-28
2023/09/26 09:10:53;;;;;;;9.43;6.45;;;17.60;99.90;;;;;;5154952;27;20043;-27
2023/09/26 09:13:30;;;;;;;11.07;7.72;;;18.20;99.90;;;;;;5155518;27;20039;-28
2023/09/26 09:16:15;;;;;;;14.93;6.60;;;19.00;99.90;;;;;;5154965;27;20425;-27
2023/09/26 09:18:50;;;;;;;13.27;6.95;;;19.40;99.90;;;;;;5155476;27;20099;-27
2023/09/26 09:21:25;;;;;;;9.52;6.55;;;19.40;99.90;;;;;;5155757;27;20046;-27
2023/09/26 09:23:52;;;;;;;9.52;7.22;;;19.60;99.90;;;;;;5156954;27;20073;-27
2023/09/26 09:26:20;;;;;;;12.73;6.78;;;19.90;99.90;;;;;;5158820;27;20142;-26
2023/09/26 09:28:46;;;;;;;12.57;7.47;;;20.30;1.00;;;;;;5157144;27;20492;-26
2023/09/26 09:31:18;;;;;;;16.25;6.97;;;20.30;99.90;;;;;;5159768;27;20065;-27
2023/09/26 09:33:45;;;;;;;8.82;6.18;;;20.10;1.00;;;;;;5158615;27;20096;-27
2023/09/26 09:36:12;;;;;;;12.43;6.05;;;20.00;99.90;;;;;;5157350;27;20043;-26
2023/09/26 09:38:38;;;;;;;11.50;6.00;;;19.70;99.90;;;;;;5158492;27;20058;-27
2023/09/26 09:41:04;;;;;;;9.93;6.10;;;19.60;99.90;;;;;;5139953;27;20098;-26
2023/09/26 09:43:30;;;;;;;9.45;5.85;;;19.50;99.90;;;;;;5158381;27;20051;-26
2023/09/26 09:45:58;;;;;;;9.18;6.07;;;19.70;99.90;;;;;;5158289;27;20206;-27
2023/09/26 09:48:26;;;;;;;9.55;6.30;;;19.80;99.90;;;;;;5158451;27;20050;-26
2023/09/26 09:50:54;;;;;;;9.80;5.65;;;20.20;99.90;;;;;;5158856;27;20061;-26
2023/09/26 09:53:21;;;;;;;9.23;6.13;;;20.90;99.90;;;;;;5158126;27;20088;-26
2023/09/26 09:55:51;;;;;;;9.50;5.65;;;20.90;1.00;;;;;;5158400;27;20373;-26
2023/09/26 09:58:27;;;;;;;9.00;5.63;;;21.80;1.00;;;;;;5158183;27;20054;-27
2023/09/26 10:00:54;;;;;;;8.00;5.03;;;21.90;10.30;;;;;;5157804;27;20043;-26
2023/09/26 10:03:20;;;;;;;9.15;5.15;;;21.70;62.30;;;;;;5158039;27;20044;-27
2023/09/26 10:05:48;;;;;;;9.43;5.53;;;21.50;1.00;;;;;;5158546;27;20054;-26
2023/09/26 10:08:15;;;;;;;9.48;5.18;;;21.50;1.00;;;;;;5122804;27;20412;-27
2023/09/26 10:10:41;;;;;;;8.75;5.10;;;21.60;99.90;;;;;;5157887;27;20506;-27
2023/09/26 10:13:08;;;;;;;8.23;4.50;;;21.90;99.90;;;;;;5157832;27;20046;-27
2023/09/26 10:16:06;;;;;;;6.82;4.75;;;22.50;99.90;;;;;;5158370;27;20440;-27
2023/09/26 10:18:39;;;;;;;13.43;5.50;;;;;;;;;;5156489;27;20078;-27
2023/09/26 10:21:22;;;;;;;7.85;4.78;;;23.70;99.90;;;;;;5156767;27;20039;-27
2023/09/26 10:24:12;;;;;;;7.25;4.10;;;23.70;1.00;;;;;;5156014;27;20051;-27
2023/09/26 10:26:48;;;;;;;7.55;4.22;;;23.70;1.00;;;;;;5158221;27;20054;-27
2023/09/26 10:29:27;;;;;;;9.15;5.13;;;23.60;99.90;;;;;;5158205;27;20385;-27
2023/09/26 10:31:57;;;;;;;8.02;3.97;;;23.60;99.90;;;;;;5158130;27;20054;-27
2023/09/26 10:34:44;;;;;;;9.45;5.32;;;23.70;1.00;;;;;;5156812;27;20047;-27
2023/09/26 10:37:15;;;;;;;10.48;6.68;;;23.30;99.90;;;;;;5144958;27;20134;-28
2023/09/26 10:39:43;;;;;;;11.73;5.20;;;23.00;99.90;;;;;;5156256;27;20047;-27
2023/09/26 10:42:14;;;;;;;9.32;5.22;;;22.80;1.00;;;;;;5156192;27;20038;-29
2023/09/26 10:44:49;;;;;;;10.65;4.78;;;22.50;92.00;;;;;;5156312;27;20046;-28
2023/09/26 10:47:18;;;;;;;8.50;4.60;;;22.30;3.10;;;;;;5157186;27;20082;-28
2023/09/26 10:49:44;;;;;;;8.18;4.43;;;22.10;99.90;;;;;;5157098;27;20052;-28
2023/09/26 10:52:15;;;;;;;7.22;4.55;;;22.10;99.90;;;;;;5156680;27;20125;-30
2023/09/26 10:54:42;;;;;;;10.40;4.37;;;22.00;99.90;;;;;;5147665;27;20048;-28
2023/09/26 10:57:17;;;;;;;6.60;4.50;;;21.90;99.90;;;;;;5156923;27;20363;-28
2023/09/26 10:59:42;;;;;;;9.57;4.28;;;21.70;99.90;;;;;;5156932;27;20488;-28
2023/09/26 11:02:11;;;;;;;6.65;4.28;;;21.50;99.90;;;;;;5155658;27;20054;-28
2023/09/26 11:04:37;;;;;;;8.23;4.50;;;21.50;99.90;;;;;;5152151;27;20477;-29
2023/09/26 11:07:05;;;;;;;10.35;4.38;;;21.50;99.90;;;;;;5155732;27;20039;-28
2023/09/26 11:09:33;;;;;;;6.90;4.10;;;21.30;1.00;;;;;;5144853;27;20092;-29
2023/09/26 11:12:00;;;;;;;10.27;4.20;;;21.30;99.90;;;;;;5135878;27;20039;-28
2023/09/26 11:14:26;;;;;;;6.85;3.58;;;21.20;1.00;;;;;;5154533;27;20127;-28
2023/09/26 11:16:53;;;;;;;6.78;3.58;;;21.20;1.00;;;;;;5140600;27;20045;-28
2023/09/26 11:19:23;;;;;;;8.57;3.75;;;21.10;1.00;;;;;;5138167;27;20039;-28
2023/09/26 11:21:49;;;;;;;8.68;4.28;;;21.10;1.00;;;;;;5143529;27;20434;-25
2023/09/26 11:24:27;;;;;;;8.85;3.60;;;21.10;1.00;;;;;;5155792;27;20061;-28
2023/09/26 11:26:56;;;;;;;5.45;3.35;;;21.10;1.00;;;;;;5153938;27;20054;-29
2023/09/26 11:29:23;;;;;;;6.25;3.70;;;21.10;1.00;;;;;;5152667;27;20089;-30
2023/09/26 11:31:55;;;;;;;8.05;3.33;;;21.20;1.00;;;;;;5147206;27;20050;-28
2023/09/26 11:34:26;;;;;;;6.15;3.70;;;21.10;99.90;;;;;;5135830;27;20047;-26
2023/09/26 11:36:54;;;;;;;7.18;3.70;;;21.10;99.90;;;;;;5135536;27;20047;-28
2023/09/26 11:39:25;;;;;;;4.93;3.28;;;21.00;1.00;;;;;;5154362;27;20050;-28
2023/09/26 11:42:11;;;;;;;8.65;3.83;;;20.90;1.00;;;;;;5155323;27;20078;-29
2023/09/26 11:44:37;;;;;;;9.13;4.07;;;20.80;1.00;;;;;;5154396;27;20038;-26
2023/09/26 11:47:05;;;;;;;8.52;3.42;;;20.80;99.90;;;;;;5153535;27;20039;-26
2023/09/26 11:49:30;;;;;;;6.97;3.92;;;20.80;99.90;;;;;;5139030;27;20047;-28
2023/09/26 11:51:56;;;;;;;5.03;3.55;;;20.70;99.90;;;;;;5135230;27;20437;-28
2023/09/26 11:54:22;;;;;;;6.05;3.30;;;20.80;99.90;;;;;;5137282;27;20053;-27
2023/09/26 11:56:48;;;;;;;7.72;3.95;;;21.00;99.90;;;;;;5154200;27;20046;-28
2023/09/26 11:59:15;;;;;;;6.80;3.83;;;21.10;99.90;;;;;;5145557;27;20107;-28
2023/09/26 12:01:41;;;;;;;4.72;3.08;;;21.30;99.90;;;;;;5141285;27;20053;-25
2023/09/26 12:04:10;;;;;;;5.53;3.45;;;21.50;3.80;;;;;;5145859;27;20062;-29
2023/09/26 12:06:36;;;;;;;11.13;4.05;;;21.70;24.30;;;;;;5146130;27;20121;-28
2023/09/26 12:09:06;;;;;;;6.15;3.10;;;22.10;99.90;;;;;;5155633;27;20045;-27
2023/09/26 12:11:32;;;;;;;5.75;2.97;;;22.50;99.90;;;;;;5155716;27;20046;-28
2023/09/26 12:13:58;;;;;;;6.63;3.10;;;22.80;99.90;;;;;;5154121;27;20072;-25
2023/09/26 12:16:27;;;;;;;5.70;2.92;;;23.10;61.20;;;;;;5135187;27;20081;-28
2023/09/26 12:18:53;;;;;;;3.70;2.40;;;23.50;99.90;;;;;;5154341;27;20496;-29
2023/09/26 12:21:18;;;;;;;4.35;2.90;;;24.10;99.90;;;;;;5155978;27;20043;-29
2023/09/26 12:23:44;;;;;;;5.55;2.55;;;24.60;99.90;;;;;;5155008;27;20093;-28
2023/09/26 12:26:12;;;;;;;6.18;2.75;;;24.90;1.00;;;;;;5137763;27;20073;-29
2023/09/26 12:28:38;;;;;;;6.13;2.70;;;25.20;1.00;;;;;;5154649;27;20055;-27
2023/09/26 12:31:04;;;;;;;4.47;2.90;;;25.10;1.00;;;;;;5136304;27;20043;-28
2023/09/26 12:33:29;;;;;;;5.03;2.75;;;25.10;1.00;;;;;;5116477;28;20043;-28
2023/09/26 12:35:58;;;;;;;7.72;3.10;;;24.60;1.00;;;;;;5151077;27;20129;-28
2023/09/26 12:38:23;;;;;;;4.30;2.67;;;24.60;10.60;;;;;;5153510;27;20046;-29
2023/09/26 12:40:54;;;;;;;6.53;3.00;;;24.80;1.00;;;;;;5153997;27;20408;-28
2023/09/26 12:43:30;;;;;;;6.30;2.60;;;25.00;1.00;;;;;;5138880;27;20400;-29